createdAt,value
2023-03-12T00:02:16.338Z,61.03
2023-03-12T00:04:56.181Z,60.64
2023-03-12T00:07:23.422Z,58.56
2023-03-12T00:09:50.745Z,57.59
2023-03-12T00:12:17.622Z,57.42
2023-03-12T00:14:44.566Z,57.41
2023-03-12T00:17:11.713Z,55.55
2023-03-12T00:19:39.060Z,56.17
2023-03-12T00:22:05.993Z,56.73
2023-03-12T00:24:33.158Z,58.21
2023-03-12T00:27:00.096Z,59.39
2023-03-12T00:29:27.151Z,56.89
2023-03-12T00:31:56.953Z,57.64
2023-03-12T00:34:23.936Z,57.05
2023-03-12T00:36:50.760Z,59.55
2023-03-12T00:39:17.508Z,56.81
2023-03-12T00:41:44.396Z,56.98
2023-03-12T00:44:11.152Z,58.46
2023-03-12T00:46:38.384Z,57.18
2023-03-12T00:49:05.348Z,57.91
2023-03-12T00:51:32.295Z,57.68
2023-03-12T00:53:59.241Z,60.38
2023-03-12T00:56:29.586Z,58.64
2023-03-12T00:58:56.888Z,58.64
2023-03-12T01:01:24.116Z,58.28
2023-03-12T01:03:54.551Z,59.07
2023-03-12T01:06:22.597Z,60.08
2023-03-12T01:09:03.191Z,58.04
2023-03-12T01:14:26.769Z,59.60
2023-03-12T01:14:27.314Z,58.97
2023-03-12T01:16:54.034Z,57.28
2023-03-12T01:19:27.736Z,58.06
2023-03-12T01:21:55.096Z,58.42
2023-03-12T01:24:26.728Z,58.27
2023-03-12T01:26:53.779Z,59.57
2023-03-12T01:29:20.721Z,60.69
2023-03-12T01:31:47.703Z,60.87
2023-03-12T01:34:15.190Z,60.00
2023-03-12T01:36:42.146Z,60.54
2023-03-12T01:39:09.195Z,61.10
2023-03-12T01:41:40.103Z,58.49
2023-03-12T01:44:08.989Z,60.20
2023-03-12T01:46:46.233Z,60.76
2023-03-12T01:49:26.418Z,60.24
2023-03-12T01:52:04.296Z,60.57
2023-03-12T01:54:41.524Z,59.11
2023-03-12T01:57:16.980Z,60.87
2023-03-12T02:00:03.931Z,58.73
2023-03-12T02:02:52.601Z,59.96
2023-03-12T02:06:04.784Z,61.10
2023-03-12T02:08:46.811Z,59.66
2023-03-12T02:11:15.045Z,60.99
2023-03-12T02:14:05.278Z,61.09
2023-03-12T02:16:35.428Z,61.18
2023-03-12T02:19:33.520Z,59.55
2023-03-12T02:22:04.639Z,61.97
2023-03-12T02:24:48.031Z,62.60
2023-03-12T02:27:25.519Z,61.86
2023-03-12T02:33:07.436Z,61.93
2023-03-12T02:37:24.441Z,62.81
2023-03-12T02:38:59.285Z,64.14
2023-03-12T02:42:14.142Z,62.12
2023-03-12T02:45:08.468Z,62.33
2023-03-12T02:47:35.159Z,63.00
2023-03-12T02:50:42.748Z,62.43
2023-03-12T02:53:09.796Z,63.08
2023-03-12T02:55:38.231Z,63.07
2023-03-12T02:58:08.626Z,64.41
2023-03-12T03:00:37.063Z,63.31
2023-03-12T03:03:09.820Z,62.69
2023-03-12T03:05:37.823Z,65.46
2023-03-12T03:08:05.989Z,63.82
2023-03-12T03:10:32.795Z,63.06
2023-03-12T03:13:00.060Z,63.22
2023-03-12T03:15:27.626Z,64.73
2023-03-12T03:17:54.857Z,63.13
2023-03-12T03:20:23.331Z,63.57
2023-03-12T03:22:58.604Z,64.54
2023-03-12T03:31:44.695Z,64.48
2023-03-12T03:34:12.697Z,64.21
2023-03-12T03:36:39.688Z,65.11
2023-03-12T03:39:06.495Z,64.68
2023-03-12T03:41:33.330Z,65.04
2023-03-12T03:44:00.380Z,64.36
2023-03-12T03:46:27.486Z,64.36
2023-03-12T03:48:54.792Z,66.12
2023-03-12T03:51:21.963Z,66.32
2023-03-12T03:53:49.117Z,66.29
2023-03-12T03:56:17.116Z,65.70
2023-03-12T03:58:44.141Z,65.42
2023-03-12T04:01:15.644Z,65.74
2023-03-12T04:03:42.604Z,64.98
2023-03-12T04:06:10.777Z,65.39
2023-03-12T04:08:42.739Z,66.09
2023-03-12T04:11:16.816Z,65.98
2023-03-12T04:14:06.191Z,67.25
2023-03-12T04:16:33.304Z,66.04
2023-03-12T04:19:00.322Z,66.56
2023-03-12T04:21:49.160Z,66.69
2023-03-12T04:24:44.468Z,66.63
2023-03-12T04:27:49.703Z,66.58
2023-03-12T04:30:29.864Z,66.16
2023-03-12T04:35:50.511Z,67.94
2023-03-12T04:38:20.577Z,67.78
2023-03-12T04:40:47.848Z,67.28
2023-03-12T04:43:16.763Z,68.06
2023-03-12T04:45:43.452Z,66.66
2023-03-12T04:48:10.230Z,66.78
2023-03-12T04:50:47.723Z,65.86
2023-03-12T04:53:27.536Z,66.34
2023-03-12T04:55:55.063Z,67.00
2023-03-12T04:58:23.038Z,65.88
2023-03-12T05:00:50.427Z,65.48
2023-03-12T05:03:19.204Z,67.51
2023-03-12T05:05:46.336Z,68.39
2023-03-12T05:08:14.831Z,66.48
2023-03-12T05:10:48.788Z,66.14
2023-03-12T05:13:23.754Z,65.31
2023-03-12T05:15:53.187Z,66.27
2023-03-12T05:18:21.598Z,65.71
2023-03-12T05:21:08.958Z,65.06
2023-03-12T05:23:37.148Z,64.50
2023-03-12T05:26:16.171Z,63.41
2023-03-12T05:28:43.224Z,65.33
2023-03-12T05:31:11.943Z,62.08
2023-03-12T05:33:39.476Z,65.02
2023-03-12T05:36:07.604Z,62.68
2023-03-12T05:38:35.418Z,62.19
2023-03-12T05:41:02.604Z,62.84
2023-03-12T05:43:29.980Z,65.98
2023-03-12T05:46:02.863Z,61.58
2023-03-12T05:48:31.013Z,59.78
2023-03-12T05:50:58.349Z,60.45
2023-03-12T05:53:34.061Z,61.86
2023-03-12T05:56:21.866Z,61.37
2023-03-12T05:58:50.095Z,60.61
2023-03-12T06:01:51.245Z,60.95
2023-03-12T06:04:58.192Z,62.04
2023-03-12T06:07:25.329Z,60.14
2023-03-12T06:10:01.119Z,58.49
2023-03-12T06:12:36.106Z,58.05
2023-03-12T06:19:00.725Z,58.00
2023-03-12T06:24:31.137Z,57.00
2023-03-12T06:26:57.902Z,55.81
2023-03-12T06:29:24.768Z,56.56
2023-03-12T06:31:52.593Z,56.56
2023-03-12T06:34:20.572Z,55.55
2023-03-12T06:37:10.474Z,53.77
2023-03-12T06:39:46.195Z,54.78
2023-03-12T06:42:28.389Z,53.80
2023-03-12T06:51:42.496Z,52.74
2023-03-12T06:54:23.551Z,51.06
2023-03-12T06:56:58.252Z,52.96
2023-03-12T06:59:33.447Z,53.30
2023-03-12T07:02:27.170Z,51.70
2023-03-12T07:05:11.143Z,52.42
2023-03-12T07:07:52.534Z,51.78
2023-03-12T07:10:36.876Z,51.13
2023-03-12T07:13:54.366Z,50.45
2023-03-12T07:19:26.193Z,50.60
2023-03-12T07:20:49.033Z,50.18
2023-03-12T07:25:15.825Z,50.13
2023-03-12T07:28:26.569Z,51.01
2023-03-12T07:30:54.015Z,50.26
2023-03-12T07:33:40.633Z,48.88
2023-03-12T07:39:13.748Z,49.88
2023-03-12T07:41:41.787Z,48.93
2023-03-12T07:46:51.666Z,49.30
2023-03-12T07:49:35.390Z,48.46
2023-03-12T07:52:13.204Z,49.71
2023-03-12T07:54:59.387Z,49.02
2023-03-12T07:57:52.795Z,48.67
2023-03-12T08:00:32.141Z,48.81
2023-03-12T08:03:07.645Z,47.73
2023-03-12T08:05:40.893Z,47.20
2023-03-12T08:08:15.504Z,48.40
2023-03-12T08:10:44.094Z,47.92
2023-03-12T08:13:22.110Z,47.46
2023-03-12T08:15:54.455Z,48.88
2023-03-12T08:18:27.017Z,47.81
2023-03-12T08:21:59.763Z,46.41
2023-03-12T08:24:26.514Z,44.84
2023-03-12T08:26:53.535Z,46.79
2023-03-12T08:29:27.628Z,44.90
2023-03-12T08:33:15.436Z,45.09
2023-03-12T08:36:14.461Z,45.84
2023-03-12T08:38:41.497Z,51.22
2023-03-12T08:41:12.703Z,46.94
2023-03-12T08:44:00.892Z,48.46
2023-03-12T08:46:35.617Z,47.18
2023-03-12T08:49:31.254Z,47.94
2023-03-12T08:52:07.361Z,46.35
2023-03-12T08:54:38.722Z,47.26
2023-03-12T08:57:22.922Z,47.16
2023-03-12T09:00:00.753Z,46.04
2023-03-12T09:02:28.665Z,46.42
2023-03-12T09:04:58.744Z,46.76
2023-03-12T09:07:31.825Z,46.22
2023-03-12T09:10:04.360Z,45.99
2023-03-12T09:12:40.911Z,45.49
2023-03-12T09:15:16.272Z,45.86
2023-03-12T09:17:43.403Z,45.53
2023-03-12T09:20:19.670Z,47.61
2023-03-12T09:22:49.589Z,46.51
2023-03-12T09:25:21.142Z,45.13
2023-03-12T09:27:51.384Z,44.92
2023-03-12T09:30:22.716Z,46.02
2023-03-12T09:32:50.096Z,46.26
2023-03-12T09:35:20.297Z,46.02
2023-03-12T09:37:51.535Z,45.45
2023-03-12T09:40:23.384Z,45.52
2023-03-12T09:43:01.071Z,45.36
2023-03-12T09:45:45.484Z,45.33
2023-03-12T09:48:24.668Z,45.99
2023-03-12T09:50:52.647Z,45.97
2023-03-12T09:53:48.426Z,46.44
2023-03-12T09:56:19.136Z,44.98
2023-03-12T09:59:11.154Z,44.23
2023-03-12T10:01:44.727Z,44.86
2023-03-12T10:04:59.525Z,44.53
2023-03-12T10:07:49.671Z,45.17
2023-03-12T10:10:38.620Z,45.60
2023-03-12T10:13:36.743Z,45.34
2023-03-12T10:16:33.324Z,46.11
2023-03-12T10:19:22.067Z,44.03
2023-03-12T10:22:16.860Z,44.49
2023-03-12T10:24:58.675Z,45.02
2023-03-12T10:27:54.594Z,44.81
2023-03-12T10:30:48.708Z,43.01
2023-03-12T10:33:20.737Z,43.40
2023-03-12T10:35:57.121Z,43.39
2023-03-12T10:38:45.654Z,44.01
2023-03-12T10:41:34.794Z,44.26
2023-03-12T10:44:09.228Z,44.39
2023-03-12T10:46:57.711Z,44.52
2023-03-12T10:49:54.298Z,44.74
2023-03-12T10:52:26.028Z,45.04
2023-03-12T10:54:54.835Z,43.73
2023-03-12T10:57:40.546Z,43.19
2023-03-12T11:00:13.848Z,43.06
2023-03-12T11:02:46.624Z,43.46
2023-03-12T11:05:22.507Z,44.55
2023-03-12T11:07:49.849Z,44.84
2023-03-12T11:10:47.812Z,44.68
2023-03-12T11:13:40.898Z,44.72
2023-03-12T11:16:17.001Z,45.15
2023-03-12T11:19:17.372Z,45.87
2023-03-12T11:22:01.513Z,45.79
2023-03-12T11:24:30.207Z,45.45
2023-03-12T11:27:08.024Z,45.28
2023-03-12T11:29:40.545Z,45.10
2023-03-12T11:32:35.830Z,44.99
2023-03-12T11:35:11.804Z,45.88
2023-03-12T11:38:16.541Z,45.48
2023-03-12T11:40:53.144Z,44.06
2023-03-12T11:43:43.359Z,44.20
2023-03-12T11:46:57.612Z,43.68
2023-03-12T11:49:32.861Z,43.47
2023-03-12T11:52:47.763Z,42.54
2023-03-12T11:55:45.611Z,42.57
2023-03-12T11:58:53.905Z,43.04
2023-03-12T12:01:26.831Z,42.17
2023-03-12T12:04:24.090Z,42.24
2023-03-12T12:06:58.754Z,43.04
2023-03-12T12:09:44.607Z,43.08
2023-03-12T12:12:15.354Z,43.04
2023-03-12T12:15:07.635Z,42.78
2023-03-12T12:18:32.375Z,42.97
2023-03-12T12:21:27.149Z,42.83
2023-03-12T12:24:06.460Z,43.11
2023-03-12T12:30:19.620Z,42.52
2023-03-12T12:33:34.960Z,42.98
2023-03-12T12:36:11.258Z,43.44
2023-03-12T12:39:27.376Z,43.79
2023-03-12T12:41:59.926Z,44.12
2023-03-12T12:44:37.414Z,43.62
2023-03-12T12:47:07.004Z,42.69
2023-03-12T12:49:43.588Z,42.24
2023-03-12T12:52:14.183Z,43.03
2023-03-12T12:55:06.920Z,43.12
2023-03-12T12:57:34.067Z,43.50
2023-03-12T13:00:42.656Z,43.51
2023-03-12T13:03:19.693Z,43.38
2023-03-12T13:05:54.642Z,43.32
2023-03-12T13:08:39.789Z,43.70
2023-03-12T13:11:24.896Z,43.75
2023-03-12T13:14:11.720Z,43.02
2023-03-12T13:19:55.665Z,43.57
2023-03-12T13:23:12.925Z,43.84
2023-03-12T13:25:56.504Z,43.96
2023-03-12T13:28:26.586Z,45.16
2023-03-12T13:30:55.373Z,43.56
2023-03-12T13:33:43.711Z,44.32
2023-03-12T13:36:16.681Z,44.48
2023-03-12T13:39:00.892Z,44.21
2023-03-12T13:41:55.347Z,43.61
2023-03-12T13:44:32.602Z,43.72
2023-03-12T13:47:12.400Z,43.88
2023-03-12T13:49:48.391Z,44.49
2023-03-12T13:52:26.869Z,45.25
2023-03-12T13:55:25.046Z,44.68
2023-03-12T13:58:08.329Z,44.19
2023-03-12T14:00:47.198Z,43.33
2023-03-12T14:03:27.384Z,44.15
2023-03-12T14:06:17.820Z,44.09
2023-03-12T14:09:00.961Z,43.91
2023-03-12T14:11:40.448Z,43.92
2023-03-12T14:14:30.231Z,44.18
2023-03-12T14:17:11.061Z,43.80
2023-03-12T14:20:12.988Z,43.99
2023-03-12T14:22:45.666Z,44.59
2023-03-12T14:25:47.409Z,44.52
2023-03-12T14:28:26.180Z,44.98
2023-03-12T14:30:57.414Z,44.38
2023-03-12T14:34:00.522Z,44.06
2023-03-12T14:37:17.000Z,43.90
2023-03-12T14:39:55.513Z,45.65
2023-03-12T14:50:59.115Z,46.17
2023-03-12T14:53:38.553Z,46.29
2023-03-12T14:59:22.401Z,47.18
2023-03-12T15:02:07.083Z,47.17
2023-03-12T15:04:35.405Z,48.21
2023-03-12T15:07:06.836Z,46.64
2023-03-12T15:09:37.119Z,47.04
2023-03-12T15:12:08.937Z,47.59
2023-03-12T15:14:41.767Z,46.51
2023-03-12T15:17:18.832Z,47.39
2023-03-12T15:20:15.735Z,47.54
2023-03-12T15:22:44.115Z,47.12
2023-03-12T15:25:27.291Z,46.62
2023-03-12T15:28:25.523Z,48.19
2023-03-12T15:31:47.316Z,48.08
2023-03-12T15:34:32.422Z,48.25
2023-03-12T15:37:20.922Z,49.01
2023-03-12T15:40:09.709Z,49.88
2023-03-12T15:42:48.419Z,48.94
2023-03-12T15:45:30.074Z,50.27
2023-03-12T15:48:01.992Z,49.38
2023-03-12T15:50:41.559Z,49.14
2023-03-12T15:53:15.539Z,48.61
2023-03-12T15:55:55.105Z,50.17
2023-03-12T15:58:30.914Z,48.65
2023-03-12T16:01:14.036Z,49.98
2023-03-12T16:03:43.644Z,50.83
2023-03-12T16:06:19.765Z,49.39
2023-03-12T16:09:01.122Z,49.98
2023-03-12T16:11:31.858Z,50.27
2023-03-12T16:14:13.899Z,50.08
2023-03-12T16:16:48.114Z,49.99
2023-03-12T16:19:17.118Z,49.07
2023-03-12T16:21:45.513Z,50.37
2023-03-12T16:24:16.758Z,50.54
2023-03-12T16:26:51.902Z,50.74
2023-03-12T16:29:21.061Z,50.37
2023-03-12T16:32:51.341Z,51.29
2023-03-12T16:35:22.829Z,51.71
2023-03-12T16:37:50.959Z,51.78
2023-03-12T16:40:30.928Z,50.69
2023-03-12T16:43:04.175Z,51.47
2023-03-12T16:45:41.800Z,51.44
2023-03-12T16:48:27.276Z,50.60
2023-03-12T16:52:07.711Z,52.38
2023-03-12T16:54:53.156Z,51.27
2023-03-12T16:57:34.346Z,52.91
2023-03-12T17:03:40.812Z,53.22
2023-03-12T17:06:15.222Z,52.71
2023-03-12T17:08:43.466Z,51.85
2023-03-12T17:12:12.453Z,51.91
2023-03-12T17:14:24.070Z,53.04
2023-03-12T17:16:56.402Z,53.85
2023-03-12T17:19:28.810Z,53.51
2023-03-12T17:21:59.541Z,53.15
2023-03-12T17:27:26.601Z,53.39
2023-03-12T17:29:54.427Z,53.06
2023-03-12T17:32:21.998Z,53.07
2023-03-12T17:35:06.506Z,53.71
2023-03-12T17:37:34.993Z,53.90
2023-03-12T17:40:19.644Z,54.14
2023-03-12T17:42:47.692Z,54.07
2023-03-12T17:45:14.883Z,53.71
2023-03-12T17:47:42.711Z,53.24
2023-03-12T17:50:10.391Z,53.58
2023-03-12T17:52:38.215Z,53.57
2023-03-12T17:55:24.647Z,54.44
2023-03-12T17:57:52.403Z,54.92
2023-03-12T18:00:30.275Z,55.96
2023-03-12T18:02:57.637Z,57.05
2023-03-12T18:05:26.821Z,56.79
2023-03-12T18:07:55.377Z,57.28
2023-03-12T18:10:22.670Z,56.13
2023-03-12T18:12:50.004Z,57.74
2023-03-12T18:15:17.925Z,58.36
2023-03-12T18:17:56.955Z,59.14
2023-03-12T18:20:37.498Z,59.96
2023-03-12T18:26:20.410Z,60.39
2023-03-12T18:28:48.705Z,60.96
2023-03-12T18:31:29.314Z,61.31
2023-03-12T18:34:22.345Z,60.16
2023-03-12T18:36:50.275Z,61.99
2023-03-12T18:39:31.921Z,61.40
2023-03-12T18:41:59.225Z,61.96
2023-03-12T18:44:31.670Z,61.38
2023-03-12T18:47:13.310Z,61.91
2023-03-12T18:49:43.662Z,62.11
2023-03-12T18:52:15.644Z,62.96
2023-03-12T18:54:52.080Z,63.83
2023-03-12T18:57:24.908Z,63.46
2023-03-12T18:59:52.243Z,64.67
2023-03-12T19:02:25.105Z,65.02
2023-03-12T19:04:56.124Z,65.65
2023-03-12T19:07:28.368Z,64.00
2023-03-12T19:10:06.477Z,64.35
2023-03-12T19:12:45.397Z,64.31
2023-03-12T19:15:18.344Z,66.96
2023-03-12T19:17:45.958Z,66.66
2023-03-12T19:20:14.657Z,66.10
2023-03-12T19:23:15.631Z,66.54
2023-03-12T19:25:46.710Z,65.28
2023-03-12T19:28:18.850Z,65.06
2023-03-12T19:31:08.128Z,65.83
2023-03-12T19:33:36.524Z,66.44
2023-03-12T19:36:35.269Z,68.95
2023-03-12T19:39:23.155Z,68.52
2023-03-12T19:41:53.272Z,68.61
2023-03-12T19:44:23.833Z,69.08
2023-03-12T19:47:02.411Z,67.76
2023-03-12T19:49:45.936Z,68.87
2023-03-12T19:52:16.822Z,69.33
2023-03-12T19:54:51.663Z,70.23
2023-03-12T19:57:37.144Z,70.30
2023-03-12T20:00:10.274Z,69.67
2023-03-12T20:02:53.156Z,69.72
2023-03-12T20:05:47.353Z,70.27
2023-03-12T20:08:27.130Z,70.51
2023-03-12T20:13:53.298Z,72.26
2023-03-12T20:16:24.133Z,72.36
2023-03-12T20:18:55.115Z,72.80
2023-03-12T20:21:25.959Z,73.08
2023-03-12T20:24:02.281Z,73.22
2023-03-12T20:29:48.580Z,73.23
2023-03-12T20:32:23.317Z,74.44
2023-03-12T20:35:23.532Z,74.09
2023-03-12T20:37:56.557Z,74.17
2023-03-12T20:40:27.182Z,75.12
2023-03-12T20:43:06.769Z,74.31
2023-03-12T20:45:39.914Z,75.38
2023-03-12T20:48:11.719Z,74.97
2023-03-12T20:50:54.021Z,75.25
2023-03-12T20:54:11.251Z,73.54
2023-03-12T20:57:01.105Z,74.85
2023-03-12T20:59:31.522Z,75.18
2023-03-12T21:02:04.899Z,75.70
2023-03-12T21:04:32.927Z,75.83
2023-03-12T21:07:05.869Z,75.42
2023-03-12T21:09:40.537Z,75.09
2023-03-12T21:12:21.956Z,75.54
2023-03-12T21:14:55.068Z,74.85
2023-03-12T21:18:08.284Z,76.16
2023-03-12T21:21:05.618Z,75.25
2023-03-12T21:23:45.797Z,75.17
2023-03-12T21:26:20.928Z,73.86
2023-03-12T21:28:53.599Z,72.50
2023-03-12T21:31:26.374Z,72.39
2023-03-12T21:34:01.899Z,70.43
2023-03-12T21:36:31.427Z,71.92
2023-03-12T21:42:20.951Z,69.45
2023-03-12T21:44:55.262Z,70.38
2023-03-12T21:47:38.058Z,71.11
2023-03-12T21:50:27.873Z,70.99
2023-03-12T21:53:11.647Z,69.89
2023-03-12T21:59:04.218Z,69.36
2023-03-12T22:01:54.590Z,69.52
2023-03-12T22:04:26.382Z,67.58
2023-03-12T22:07:19.269Z,70.27
2023-03-12T22:13:08.289Z,72.69
2023-03-12T22:15:44.640Z,71.79
2023-03-12T22:18:16.720Z,71.19
2023-03-12T22:21:10.545Z,71.14
2023-03-12T22:23:59.978Z,68.74
2023-03-12T22:27:12.306Z,68.16
2023-03-12T22:32:27.123Z,69.15
2023-03-12T22:35:14.421Z,68.63
2023-03-12T22:37:49.068Z,66.93
2023-03-12T22:40:26.775Z,69.25
2023-03-12T22:42:59.902Z,69.35
2023-03-12T22:46:04.532Z,68.60
2023-03-12T22:48:51.752Z,70.29
2023-03-12T22:51:44.913Z,70.06
2023-03-12T23:00:30.807Z,68.03
2023-03-12T23:03:24.907Z,69.03
2023-03-12T23:06:00.616Z,68.31
2023-03-12T23:09:20.023Z,69.46
2023-03-12T23:12:13.294Z,68.95
2023-03-12T23:14:43.899Z,68.14
2023-03-12T23:17:12.029Z,67.13
2023-03-12T23:20:26.734Z,66.64
2023-03-12T23:22:54.619Z,67.51
2023-03-12T23:25:27.960Z,68.10
2023-03-12T23:27:55.412Z,66.10
2023-03-12T23:30:35.634Z,67.49
2023-03-12T23:33:17.492Z,67.74
2023-03-12T23:36:17.479Z,64.78
2023-03-12T23:39:00.525Z,67.08
2023-03-12T23:48:23.689Z,66.15
2023-03-12T23:50:56.555Z,67.75
2023-03-12T23:53:38.093Z,67.51
2023-03-12T23:58:57.150Z,66.64
